M I D A S
Marine Information and Data Acquisition System
Tripno 642 of the Zeeleeuw from 2004-02-04 07:15:13 to 2004-02-04 13:43:02
Back to CruiseResearch ActivitiesStationsMapUnderway DataData graphs

EquipmentUnitsComment
TimeDGPSUTC
LatitudeDGPSDM.mWGS84
LongitudeDGPSDM.mWGS84
HeadingGyrodeg 
SOGDGPSknotsSpeed over ground
COGDGPSdegCourse over ground
DepthEcho soundermeters200 kHz
Missing or incorrect values are displayed as -999
Navigation data collected by the RV Zeeleeuw from 2004-02-04 07:15:13 to 2004-02-04 13:43:02
Time Latitude Longitude Heading SOG COG Depth
2004-02-04 07:16:14 51°13.594 2°56.108 119.6 0.1 187 7.1
2004-02-04 07:17:15 51°13.606 2°56.063 115.9 3.4 293 -999
2004-02-04 07:18:14 51°13.632 2°55.972 115.9 4 294 -999
2004-02-04 07:19:14 51°13.643 2°55.926 118.4 2.1 293 9.8
2004-02-04 07:20:14 51°13.67 2°55.852 127.3 3.8 306 -999
2004-02-04 07:21:14 51°13.681 2°55.836 98.2 1.1 292 9.5
2004-02-04 07:22:15 51°13.677 2°55.763 74.1 3.3 256 11.5
2004-02-04 07:23:14 51°13.72 2°55.749 343.7 5 340 12.8
2004-02-04 07:24:14 51°13.811 2°55.656 330.2 7.3 326 10.1
2004-02-04 07:25:14 51°13.926 2°55.561 340.5 8.1 336 9.8
2004-02-04 07:26:14 51°14.049 2°55.474 340.5 8.3 336 9.1
2004-02-04 07:27:14 51°14.182 2°55.361 334 9.9 328 10.8
2004-02-04 07:28:14 51°14.316 2°55.17 316.8 12 312 9.9
2004-02-04 07:29:14 51°14.476 2°54.951 337 12.9 330 9.7
2004-02-04 07:30:14 51°14.637 2°54.729 318.8 13 310 9.4
2004-02-04 07:31:14 51°14.679 2°54.422 263.4 10.2 256 9.9
2004-02-04 07:32:14 51°14.62 2°54.281 225 4.8 225 11.1
2004-02-04 07:33:14 51°14.574 2°54.223 214.9 2.9 216 11.3
2004-02-04 07:34:14 51°14.543 2°54.19 215.2 1.8 214 11.3
2004-02-04 07:35:14 51°14.501 2°54.107 243.2 6.7 238 10.2
2004-02-04 07:36:14 51°14.401 2°53.84 243.1 13.4 239 9.8
2004-02-04 07:37:14 51°14.279 2°53.528 240.2 14 236 9.8
2004-02-04 07:38:14 51°14.153 2°53.212 242.7 14.1 238 10
2004-02-04 07:39:14 51°14.029 2°52.89 243.2 14.2 239 10.5
2004-02-04 07:40:14 51°13.906 2°52.569 242.4 14.2 238 10.7
2004-02-04 07:41:14 51°13.782 2°52.247 243.1 14.2 239 10.7
2004-02-04 07:42:14 51°13.658 2°51.926 243.8 14.2 239 10.8
2004-02-04 07:43:14 51°13.535 2°51.603 243.3 14.3 239 11
2004-02-04 07:44:14 51°13.415 2°51.277 243.9 14.3 240 11.1
2004-02-04 07:45:14 51°13.296 2°50.948 243.8 14.2 240 11.2
2004-02-04 07:46:14 51°13.177 2°50.621 244.3 14.3 240 11.3
2004-02-04 07:47:14 51°13.058 2°50.294 244.1 14.3 240 11.4
2004-02-04 07:48:14 51°12.939 2°49.968 244 14.2 240 11.6
2004-02-04 07:49:14 51°12.82 2°49.643 244.4 14 240 11.7
2004-02-04 07:50:14 51°12.702 2°49.32 244.3 14.1 240 11.9
2004-02-04 07:51:14 51°12.584 2°48.997 244.3 14.1 240 12
2004-02-04 07:52:14 51°12.467 2°48.675 244.9 14 240 12.2
2004-02-04 07:53:14 51°12.349 2°48.353 244.2 14.1 240 12.1
2004-02-04 07:54:14 51°12.233 2°48.03 243.8 14 239 12.3
2004-02-04 07:55:14 51°12.118 2°47.707 243.8 14 240 12.3
2004-02-04 07:56:14 51°12.012 2°47.379 247.5 13.9 243 12.4
2004-02-04 07:57:14 51°11.908 2°47.049 247.4 13.9 243 12.3
2004-02-04 07:58:14 51°11.803 2°46.719 246.6 13.9 243 12.4
2004-02-04 07:59:14 51°11.7 2°46.389 247.5 14 244 12.4
2004-02-04 08:00:14 51°11.597 2°46.056 248 14 244 12.3
2004-02-04 08:01:14 51°11.499 2°45.72 251.5 14 248 12.1
2004-02-04 08:02:14 51°11.411 2°45.377 251.3 14 248 12.1
2004-02-04 08:03:14 51°11.324 2°45.033 251.8 14 249 12.1
2004-02-04 08:04:14 51°11.237 2°44.69 251.1 14 248 12
2004-02-04 08:05:14 51°11.154 2°44.343 255.6 14 253 11.9
2004-02-04 08:06:14 51°11.085 2°43.988 256.5 14 253 12.1
2004-02-04 08:07:14 51°11.017 2°43.633 256.5 14 253 12.2
2004-02-04 08:08:14 51°10.948 2°43.28 256.6 14 254 12.3
2004-02-04 08:09:14 51°10.881 2°42.925 256.8 14 254 12.4
2004-02-04 08:10:14 51°10.815 2°42.568 256.9 14 253 12.5
2004-02-04 08:11:14 51°10.748 2°42.213 256.9 14 254 12.4
2004-02-04 08:12:14 51°10.681 2°41.857 256.2 14 253 12.6
2004-02-04 08:13:14 51°10.614 2°41.502 256.5 14 253 12.6
2004-02-04 08:14:14 51°10.546 2°41.148 256.8 14 253 12.8
2004-02-04 08:15:14 51°10.48 2°40.793 256.4 14 254 12.9
2004-02-04 08:16:14 51°10.418 2°40.44 256.9 13.8 254 13.2
2004-02-04 08:17:14 51°10.353 2°40.09 255.9 13.8 253 13.5
2004-02-04 08:18:14 51°10.289 2°39.74 256.8 13.8 254 14.1
2004-02-04 08:19:14 51°10.225 2°39.389 256.6 13.9 254 14.9
2004-02-04 08:20:14 51°10.162 2°39.036 256.5 13.8 254 15.5
2004-02-04 08:21:14 51°10.099 2°38.684 256.9 13.9 255 15.8
2004-02-04 08:22:14 51°10.035 2°38.331 256.4 13.9 254 16.6
2004-02-04 08:23:14 51°9.972 2°37.978 256.5 13.9 254 17.2
2004-02-04 08:24:14 51°9.908 2°37.625 256 13.8 254 17.4
2004-02-04 08:25:14 51°9.838 2°37.276 254.5 13.8 252 17.5
2004-02-04 08:26:14 51°9.768 2°36.927 254.4 13.9 253 17
2004-02-04 08:27:14 51°9.697 2°36.577 254.1 13.9 252 17.9
2004-02-04 08:28:14 51°9.626 2°36.228 254.6 13.9 253 17.6
2004-02-04 08:29:14 51°9.556 2°35.88 254.4 13.8 252 18.1
2004-02-04 08:30:14 51°9.496 2°35.615 247.6 8.3 249 17.9
2004-02-04 08:31:14 51°9.487 2°35.463 279.1 4.5 280 18.2
2004-02-04 08:32:14 51°9.507 2°35.391 302.9 2.9 304 18.6
2004-02-04 08:33:14 51°9.538 2°35.329 317.1 3.1 317 19.3
2004-02-04 08:34:14 51°9.583 2°35.288 340.1 3.1 339 19.6
2004-02-04 08:35:14 51°9.634 2°35.272 358.1 3.2 355 20
2004-02-04 08:36:14 51°9.686 2°35.279 15.8 3.2 11 19.7
2004-02-04 08:37:14 51°9.736 2°35.31 34.2 3.2 28 19.6
2004-02-04 08:38:14 51°9.778 2°35.362 52.3 3.2 44 19.7
2004-02-04 08:39:14 51°9.807 2°35.429 72.9 3 64 19.7
2004-02-04 08:40:14 51°9.822 2°35.502 89.8 2.9 79 19.7
2004-02-04 08:41:14 51°9.825 2°35.576 104.3 2.7 92 19.6
2004-02-04 08:42:14 51°9.819 2°35.645 115.4 2.6 100 19.7
2004-02-04 08:43:14 51°9.809 2°35.71 125.4 2.5 108 19.8
2004-02-04 08:44:14 51°9.792 2°35.768 135.6 2.3 119 19.4
2004-02-04 08:45:14 51°9.772 2°35.819 142.6 2.3 124 19.5
2004-02-04 08:46:14 51°9.749 2°35.864 150.6 2.2 131 19.4
2004-02-04 08:47:14 51°9.724 2°35.903 156.7 2 135 19.1
2004-02-04 08:48:14 51°9.699 2°35.938 161.7 2 142 19.2
2004-02-04 08:49:14 51°9.678 2°35.968 163.2 1.5 137 18.6
2004-02-04 08:50:14 51°9.659 2°35.994 168.8 2 152 18.5
2004-02-04 08:51:14 51°9.622 2°35.959 244.8 3.4 252 18.9
2004-02-04 08:52:14 51°9.671 2°35.838 320.8 8.6 318 19.1
2004-02-04 08:53:14 51°9.808 2°35.638 328.9 13.1 329 19.8
2004-02-04 08:54:14 51°10.028 2°35.533 356.1 14.1 353 16.3
2004-02-04 08:55:14 51°10.26 2°35.544 4.5 14 2 12.5
2004-02-04 08:56:14 51°10.487 2°35.607 21.2 13.9 20 11.9
2004-02-04 08:57:14 51°10.695 2°35.78 33.6 14.2 29 11.9
2004-02-04 08:58:14 51°10.896 2°35.98 37 14.2 34 12.2
2004-02-04 08:59:14 51°11.098 2°36.179 35.1 14.3 33 12.4
2004-02-04 09:00:14 51°11.299 2°36.378 34.8 14.2 32 12.3
2004-02-04 09:01:14 51°11.5 2°36.581 37 14.4 33 12.5
2004-02-04 09:02:14 51°11.698 2°36.788 35.9 14.2 32 12.6
2004-02-04 09:03:14 51°11.899 2°36.992 35.9 14.2 32 12.6
2004-02-04 09:04:14 51°12.098 2°37.197 35.8 14.2 33 12.6
2004-02-04 09:05:14 51°12.297 2°37.398 36.9 14.2 32 12.9
2004-02-04 09:06:14 51°12.496 2°37.602 35.5 14.4 33 13.6
2004-02-04 09:07:14 51°12.696 2°37.81 36.5 14.2 33 14.3
2004-02-04 09:08:14 51°12.894 2°38.021 37.7 14.2 33 14.6
2004-02-04 09:09:14 51°13.092 2°38.235 37.8 14.4 34 15.5
2004-02-04 09:10:14 51°13.289 2°38.45 37 14.3 33 15.9
2004-02-04 09:11:14 51°13.489 2°38.665 35.1 14.4 34 16.1
2004-02-04 09:12:14 51°13.694 2°38.851 23.7 14 21 16
2004-02-04 09:13:14 51°13.918 2°38.96 20.2 14.2 19 15.1
2004-02-04 09:14:14 51°14.145 2°39.014 8.2 13.6 1 13.4
2004-02-04 09:15:14 51°14.347 2°38.884 325.7 13.2 321 18.2
2004-02-04 09:16:14 51°14.399 2°38.565 266.7 13 260 19.5
2004-02-04 09:17:14 51°14.317 2°38.238 250.4 13.4 246 20.2
2004-02-04 09:18:14 51°14.23 2°37.914 251.2 13.3 247 20.1
2004-02-04 09:19:14 51°14.137 2°37.595 248.8 13.2 244 20.8
2004-02-04 09:20:14 51°14.043 2°37.28 248.6 13.1 245 20.7
2004-02-04 09:21:14 51°13.951 2°36.966 248.6 13.1 244 21.3
2004-02-04 09:22:14 51°13.858 2°36.654 248.8 13 245 21.2
2004-02-04 09:23:14 51°13.766 2°36.345 249.4 12.9 246 20.9
2004-02-04 09:24:14 51°13.674 2°36.035 249 12.9 245 20.2
2004-02-04 09:25:14 51°13.582 2°35.726 248.8 12.9 244 17.5
2004-02-04 09:26:14 51°13.491 2°35.419 249.5 12.7 245 19.1
2004-02-04 09:27:14 51°13.401 2°35.112 249.4 12.7 244 18.1
2004-02-04 09:28:14 51°13.309 2°34.806 249.6 12.8 244 18.1
2004-02-04 09:29:14 51°13.216 2°34.5 249 12.9 244 17.6
2004-02-04 09:30:14 51°13.122 2°34.193 249.4 12.8 244 17.1
2004-02-04 09:31:14 51°13.029 2°33.887 249.3 12.8 244 15.8
2004-02-04 09:32:14 51°12.934 2°33.58 249.3 12.8 245 16.6
2004-02-04 09:33:14 51°12.84 2°33.274 249.4 12.8 243 17.4
2004-02-04 09:34:14 51°12.747 2°32.967 249.6 12.8 245 19.3
2004-02-04 09:35:14 51°12.654 2°32.658 249.3 12.9 245 21.1
2004-02-04 09:36:14 51°12.56 2°32.35 248.8 12.9 244 23.4
2004-02-04 09:37:14 51°12.466 2°32.041 249.3 12.9 244 24.1
2004-02-04 09:38:14 51°12.373 2°31.73 249.1 13 244 24.8
2004-02-04 09:39:14 51°12.281 2°31.418 249.6 12.9 245 24.4
2004-02-04 09:40:14 51°12.189 2°31.107 249.3 13 245 24.5
2004-02-04 09:41:14 51°12.098 2°30.797 249.5 12.9 245 24.6
2004-02-04 09:42:14 51°12.009 2°30.486 249.8 12.8 246 24.3
2004-02-04 09:43:14 51°11.922 2°30.179 248.9 12.7 245 24.4
2004-02-04 09:44:14 51°11.836 2°29.874 249.7 12.5 247 24.5
2004-02-04 09:45:14 51°11.753 2°29.577 248.9 12.1 245 25.2
2004-02-04 09:46:14 51°11.669 2°29.287 250 12 247 26.4
2004-02-04 09:47:14 51°11.586 2°29.002 248.6 11.9 245 27
2004-02-04 09:48:14 51°11.502 2°28.718 249.6 11.9 245 25.6
2004-02-04 09:49:14 51°11.418 2°28.432 249.2 11.7 245 25.4
2004-02-04 09:50:14 51°11.334 2°28.148 249.4 11.9 245 23.8
2004-02-04 09:51:14 51°11.3 2°27.838 270 11.9 270 25.2
2004-02-04 09:52:14 51°11.328 2°27.516 276.6 12.3 275 25.5
2004-02-04 09:53:14 51°11.32 2°27.19 267.8 12.4 264 23.2
2004-02-04 09:54:14 51°11.292 2°26.864 264 12.5 261 21.4
2004-02-04 09:55:14 51°11.26 2°26.542 264.3 12.3 261 19.4
2004-02-04 09:56:14 51°11.228 2°26.222 264.5 12.2 262 17.7
2004-02-04 09:57:14 51°11.235 2°25.907 290.5 12.2 292 15.6
2004-02-04 09:58:14 51°11.38 2°25.672 329 13.3 335 20.3
2004-02-04 09:59:14 51°11.611 2°25.656 4.7 14.3 2 25.4
2004-02-04 10:00:14 51°11.853 2°25.696 9.8 14.7 6 26.8
2004-02-04 10:01:14 51°12.095 2°25.754 13 14.8 6 27.5
2004-02-04 10:02:14 51°12.339 2°25.817 10.3 15.2 13 27.8
2004-02-04 10:03:14 51°12.583 2°25.878 12.7 14.7 16 28.6
2004-02-04 10:04:14 51°12.827 2°25.92 4.9 14.8 2 28
2004-02-04 10:05:14 51°13.056 2°25.937 358.7 12.4 356 29
2004-02-04 10:06:14 51°13.226 2°25.968 10.5 9.1 16 29.2
2004-02-04 10:07:14 51°13.358 2°26.037 16.8 8 21 29.5
2004-02-04 10:08:14 51°13.455 2°26.164 62.3 7.4 57 29.6
2004-02-04 10:09:14 51°13.482 2°26.299 95.1 3.4 72 29.5
2004-02-04 10:10:14 51°13.496 2°26.37 109.2 3 76 29.2
2004-02-04 10:11:14 51°13.503 2°26.456 113.9 3.5 83 29.5
2004-02-04 10:12:14 51°13.506 2°26.546 117.5 3.3 87 29.8
2004-02-04 10:13:14 51°13.506 2°26.622 140.1 2.8 88 29.4
2004-02-04 10:14:14 51°13.505 2°26.685 156 2.3 90 29.7
2004-02-04 10:15:14 51°13.505 2°26.739 166.4 2 86 29.4
2004-02-04 10:16:14 51°13.504 2°26.789 179.9 1.8 94 29.8
2004-02-04 10:17:14 51°13.5 2°26.829 197.4 1.6 106 30.3
2004-02-04 10:18:14 51°13.494 2°26.845 234.4 0.1 222 30.1
2004-02-04 10:19:14 51°13.512 2°26.824 288.8 2.4 324 30.2
2004-02-04 10:20:14 51°13.548 2°26.778 291.1 2.7 323 30.8
2004-02-04 10:21:14 51°13.594 2°26.747 307.8 2.9 343 29.2
2004-02-04 10:22:14 51°13.639 2°26.733 315 2.7 353 29.2
2004-02-04 10:23:14 51°13.687 2°26.731 324.7 3 3 29.5
2004-02-04 10:24:14 51°13.735 2°26.738 331.6 3 8 30.2
2004-02-04 10:25:14 51°13.779 2°26.754 331.6 2.6 13 29.3
2004-02-04 10:26:14 51°13.84 2°26.762 345.4 6.4 358 29.7
2004-02-04 10:27:14 51°13.989 2°26.877 41.3 13.3 37 30.3
2004-02-04 10:28:14 51°14.177 2°27.125 45.4 15.1 38 30.5
2004-02-04 10:29:14 51°14.369 2°27.386 43.1 15.3 43 30.5
2004-02-04 10:30:14 51°14.561 2°27.651 43.1 14.9 45 30.8
2004-02-04 10:31:14 51°14.753 2°27.912 43.2 15.3 42 31.3
2004-02-04 10:32:14 51°14.948 2°28.178 44.9 15.7 40 30.9
2004-02-04 10:33:14 51°15.14 2°28.443 42.9 15.3 42 31
2004-02-04 10:34:14 51°15.336 2°28.698 43.2 15 40 31.2
2004-02-04 10:35:14 51°15.533 2°28.956 42.8 15.6 38 30.5
2004-02-04 10:36:14 51°15.729 2°29.217 41.4 15.2 39 30.8
2004-02-04 10:37:14 51°15.923 2°29.471 42 15.1 43 31
2004-02-04 10:38:14 51°16.122 2°29.729 41.3 15.2 39 30.9
2004-02-04 10:39:14 51°16.318 2°29.988 43.8 15 39 30.7
2004-02-04 10:40:14 51°16.518 2°30.241 39.6 15.4 41 30.6
2004-02-04 10:41:14 51°16.713 2°30.498 43.8 15.5 41 30
2004-02-04 10:42:14 51°16.907 2°30.75 40.2 14.7 38 30.3
2004-02-04 10:43:14 51°17.1 2°31.003 42.6 15.1 40 30
2004-02-04 10:44:14 51°17.289 2°31.265 44.1 15.4 39 28.6
2004-02-04 10:45:14 51°17.472 2°31.537 47.9 14.9 47 29.3
2004-02-04 10:46:14 51°17.663 2°31.796 41.6 15.1 43 28.7
2004-02-04 10:47:14 51°17.847 2°32.072 50.8 15.1 47 27.3
2004-02-04 10:48:14 51°18.02 2°32.362 50.8 15 45 27
2004-02-04 10:49:14 51°18.198 2°32.647 45.5 15.8 43 27.1
2004-02-04 10:50:14 51°18.377 2°32.938 48 15.2 47 26.4
2004-02-04 10:51:14 51°18.546 2°33.231 51.4 14.6 51 25
2004-02-04 10:52:14 51°18.717 2°33.523 50.8 15.3 49 22.2
2004-02-04 10:53:14 51°18.888 2°33.823 49.7 15.7 50 15.5
2004-02-04 10:54:14 51°19.054 2°34.133 50.2 15.2 48 17.1
2004-02-04 10:55:14 51°19.224 2°34.429 51.3 15.1 48 18.4
2004-02-04 10:56:14 51°19.393 2°34.728 48.6 15.3 45 18.2
2004-02-04 10:57:14 51°19.554 2°35.027 54.4 13.6 53 19.2
2004-02-04 10:58:14 51°19.643 2°35.262 76.5 7 73 20.1
2004-02-04 10:59:14 51°19.658 2°35.361 123.3 2.5 75 20.6
2004-02-04 11:00:14 51°19.668 2°35.426 136.2 2.7 81 20.4
2004-02-04 11:01:14 51°19.663 2°35.502 145.3 3.2 100 21.4
2004-02-04 11:02:14 51°19.652 2°35.581 152.9 3 105 22.5
2004-02-04 11:03:14 51°19.641 2°35.648 165.1 2 105 22
2004-02-04 11:04:14 51°19.637 2°35.71 165.9 2.3 94 22.8
2004-02-04 11:05:14 51°19.626 2°35.771 170.9 2.6 110 23
2004-02-04 11:06:14 51°19.611 2°35.824 181.9 1.9 114 22.5
2004-02-04 11:07:14 51°19.596 2°35.868 194.5 1.8 127 22.9
2004-02-04 11:08:14 51°19.582 2°35.9 213.2 1.2 132 23.2
2004-02-04 11:09:14 51°19.573 2°35.897 246.9 0.9 266 23.8
2004-02-04 11:10:14 51°19.597 2°35.863 299.2 2.6 332 22.1
2004-02-04 11:11:14 51°19.647 2°35.839 324.2 3.3 351 23.2
2004-02-04 11:12:14 51°19.71 2°35.845 350.6 4 10 23.5
2004-02-04 11:13:14 51°19.775 2°35.891 23.2 4.5 32 22.5
2004-02-04 11:14:14 51°19.823 2°35.976 59.5 4.3 57 23.3
2004-02-04 11:15:14 51°19.848 2°36.072 96.1 3.7 71 23
2004-02-04 11:16:14 51°19.86 2°36.158 121.5 3.1 78 23.9
2004-02-04 11:17:14 51°19.867 2°36.23 135.7 2.8 76 23.8
2004-02-04 11:18:14 51°19.876 2°36.294 138.8 2.7 73 22.8
2004-02-04 11:19:14 51°19.858 2°36.417 123.3 7.2 106 24.8
2004-02-04 11:20:14 51°19.868 2°36.655 83.7 10 78 22.2
2004-02-04 11:21:14 51°19.898 2°36.923 92.9 10.4 82 23.3
2004-02-04 11:22:14 51°19.921 2°37.199 92.2 10.6 82 24.8
2004-02-04 11:23:14 51°19.944 2°37.476 92 10.6 84 25.3
2004-02-04 11:24:14 51°19.969 2°37.752 92.9 10.7 78 25.9
2004-02-04 11:25:14 51°19.991 2°38.028 91.4 10.5 82 25
2004-02-04 11:26:14 51°20.016 2°38.301 90.5 10.4 82 24.7
2004-02-04 11:27:14 51°20.039 2°38.575 90.6 10.4 81 26.4
2004-02-04 11:28:14 51°20.058 2°38.849 93.2 10.3 84 26.9
2004-02-04 11:29:14 51°20.075 2°39.121 93.7 10.3 84 27.9
2004-02-04 11:30:14 51°20.095 2°39.395 92.5 10.3 84 29.2
2004-02-04 11:31:14 51°20.118 2°39.67 93.6 10.5 79 30.7
2004-02-04 11:32:14 51°20.139 2°39.942 91.4 10.3 84 30.8
2004-02-04 11:33:14 51°20.155 2°40.216 95 10.3 87 30.9
2004-02-04 11:34:14 51°20.17 2°40.491 96.1 10.5 84 31.1
2004-02-04 11:35:14 51°20.185 2°40.769 95.8 10.7 82 30.4
2004-02-04 11:36:14 51°20.2 2°41.048 95.5 10.5 84 22.9
2004-02-04 11:37:14 51°20.212 2°41.331 95.6 10.7 87 24.6
2004-02-04 11:38:14 51°20.222 2°41.615 94.8 10.9 90 21.4
2004-02-04 11:39:14 51°20.235 2°41.909 95 11.2 87 21.5
2004-02-04 11:40:14 51°20.245 2°42.201 96.4 11 88 19.5
2004-02-04 11:41:14 51°20.254 2°42.493 94 10.9 86 25.8
2004-02-04 11:42:14 51°20.262 2°42.804 94.9 13.4 90 27.5
2004-02-04 11:43:14 51°20.272 2°43.194 94.9 14.6 88 28.9
2004-02-04 11:44:14 51°20.28 2°43.592 96.9 15 92 29.3
2004-02-04 11:45:14 51°20.29 2°43.985 94.7 14.5 86 29.4
2004-02-04 11:46:14 51°20.302 2°44.376 95.6 14.7 87 28.8
2004-02-04 11:47:14 51°20.313 2°44.78 95.3 15.9 86 27.6
2004-02-04 11:48:14 51°20.327 2°45.178 91.2 14.9 83 25.7
2004-02-04 11:49:14 51°20.346 2°45.541 92.9 11.8 86 25.7
2004-02-04 11:50:14 51°20.349 2°45.768 111.9 6.5 97 24.1
2004-02-04 11:51:14 51°20.336 2°45.899 128.5 4 101 22
2004-02-04 11:52:14 51°20.327 2°45.991 137.9 3.7 94 19
2004-02-04 11:53:14 51°20.315 2°46.071 155.5 2.9 103 20.8
2004-02-04 11:54:14 51°20.302 2°46.136 171 2.5 106 20
2004-02-04 11:55:14 51°20.291 2°46.182 194.6 1.6 121 18.8
2004-02-04 11:56:14 51°20.28 2°46.198 229.5 0.6 160 18.9
2004-02-04 11:57:14 51°20.282 2°46.183 259.6 1.2 314 18.9
2004-02-04 11:58:14 51°20.305 2°46.154 280.6 2 324 19.4
2004-02-04 11:59:14 51°20.337 2°46.122 292.6 2.4 344 19
2004-02-04 12:00:14 51°20.386 2°46.103 322 3.6 350 21.2
2004-02-04 12:01:14 51°20.451 2°46.104 346.2 4.3 7 22.7
2004-02-04 12:02:14 51°20.525 2°46.145 21.7 5 30 23.8
2004-02-04 12:03:14 51°20.581 2°46.247 69.8 5.1 64 23.7
2004-02-04 12:04:14 51°20.595 2°46.368 114.4 4.3 95 24.3
2004-02-04 12:05:14 51°20.578 2°46.467 143.8 3.6 113 23
2004-02-04 12:06:14 51°20.551 2°46.537 174.3 2.6 131 19.8
2004-02-04 12:07:14 51°20.527 2°46.575 204.5 1.3 141 17.1
2004-02-04 12:08:14 51°20.521 2°46.594 228.4 0.6 86 17.2
2004-02-04 12:09:14 51°20.518 2°46.594 237 2.7 222 17.2
2004-02-04 12:10:14 51°20.419 2°46.661 149.5 11 137 18.4
2004-02-04 12:11:14 51°20.263 2°46.904 144.4 13.6 130 19.5
2004-02-04 12:12:14 51°20.103 2°47.16 140.4 13.7 132 22.2
2004-02-04 12:13:14 51°19.95 2°47.43 139.7 14 133 23.9
2004-02-04 12:14:14 51°19.803 2°47.707 138.3 13.8 130 24.4
2004-02-04 12:15:14 51°19.655 2°47.984 139.3 13.6 134 24.4
2004-02-04 12:16:14 51°19.51 2°48.262 139.3 13.6 135 22.5
2004-02-04 12:17:14 51°19.362 2°48.538 139.5 13.6 134 20.2
2004-02-04 12:18:14 51°19.219 2°48.82 138.9 13.6 130 17.8
2004-02-04 12:19:14 51°19.073 2°49.099 139.3 13.7 129 14.8
2004-02-04 12:20:14 51°18.925 2°49.376 139.8 13.8 132 13.9
2004-02-04 12:21:14 51°18.776 2°49.647 139.3 13.2 131 13.6
2004-02-04 12:22:14 51°18.627 2°49.918 139.3 13.2 137 15.6
2004-02-04 12:23:14 51°18.48 2°50.191 137.9 13.7 126 16.8
2004-02-04 12:24:14 51°18.334 2°50.465 140.3 13.6 129 16.7
2004-02-04 12:25:14 51°18.202 2°50.712 140.4 9.3 130 16
2004-02-04 12:26:14 51°18.132 2°50.865 138.9 5.8 122 15.4
2004-02-04 12:27:14 51°18.106 2°50.938 168.3 1.8 111 15.2
2004-02-04 12:28:14 51°18.099 2°50.978 177.3 1.4 117 15.2
2004-02-04 12:29:14 51°18.084 2°51.005 198.2 1.3 149 15
2004-02-04 12:30:14 51°18.066 2°51.007 223.3 0.9 193 15.1
2004-02-04 12:31:14 51°18.063 2°50.979 261 1.6 287 15
2004-02-04 12:32:14 51°18.087 2°50.933 293 2.9 321 15.3
2004-02-04 12:33:14 51°18.134 2°50.893 313.5 3.5 336 15.6
2004-02-04 12:34:14 51°18.191 2°50.858 322.9 3.7 342 15.5
2004-02-04 12:35:14 51°18.254 2°50.843 344.1 3.9 2 16.1
2004-02-04 12:36:14 51°18.317 2°50.854 0.2 3.8 12 16.2
2004-02-04 12:37:14 51°18.379 2°50.883 11.4 4 22 15.8
2004-02-04 12:38:14 51°18.438 2°50.931 26.7 4.1 32 16.3
2004-02-04 12:39:14 51°18.492 2°50.997 44.6 4.2 42 16.4
2004-02-04 12:40:14 51°18.533 2°51.083 73 3.9 63 16.4
2004-02-04 12:41:14 51°18.554 2°51.178 102.5 3.6 80 16.3
2004-02-04 12:42:14 51°18.557 2°51.261 127.4 2.8 95 16.1
2004-02-04 12:43:14 51°18.55 2°51.328 148 2.2 96 16.2
2004-02-04 12:44:14 51°18.549 2°51.381 151.1 2 84 16.1
2004-02-04 12:45:14 51°18.542 2°51.435 156 3.3 127 16
2004-02-04 12:46:14 51°18.434 2°51.566 157 11.8 146 15
2004-02-04 12:47:14 51°18.253 2°51.749 154.6 13.2 146 13.9
2004-02-04 12:48:14 51°18.062 2°51.913 160.1 13 152 13.1
2004-02-04 12:49:14 51°17.87 2°52.076 158.3 12.9 152 12.8
2004-02-04 12:50:14 51°17.677 2°52.24 159.6 13.2 151 12.9
2004-02-04 12:51:14 51°17.484 2°52.401 159.4 12.9 154 12.6
2004-02-04 12:52:14 51°17.292 2°52.567 158.6 13.2 152 12.1
2004-02-04 12:53:14 51°17.1 2°52.728 160 12.9 157 12.5
2004-02-04 12:54:14 51°16.908 2°52.893 159.2 12.9 151 11.4
2004-02-04 12:55:14 51°16.717 2°53.067 155.1 13.4 147 13.6
2004-02-04 12:56:14 51°16.555 2°53.298 136.5 11.8 128 14.4
2004-02-04 12:57:14 51°16.5 2°53.532 114.2 7.6 100 14.6
2004-02-04 12:58:14 51°16.486 2°53.654 130.2 2.2 87 14.6
2004-02-04 12:59:14 51°16.487 2°53.717 139.5 2.7 98 14.5
2004-02-04 13:00:14 51°16.472 2°53.784 158 2.6 124 14.3
2004-02-04 13:01:14 51°16.448 2°53.831 181.1 1.9 137 14.6
2004-02-04 13:02:14 51°16.426 2°53.852 206.6 1.3 159 14.3
2004-02-04 13:03:14 51°16.413 2°53.85 234.3 0.7 212 14.5
2004-02-04 13:04:14 51°16.419 2°53.828 276.1 1.6 318 14.5
2004-02-04 13:05:14 51°16.45 2°53.8 298.8 2.5 333 14.4
2004-02-04 13:06:14 51°16.489 2°53.775 313.1 2.9 341 14.5
2004-02-04 13:07:14 51°16.539 2°53.754 326.8 3.3 350 14.5
2004-02-04 13:08:14 51°16.599 2°53.748 349.2 4 4 14.3
2004-02-04 13:09:14 51°16.663 2°53.776 12.3 4 21 14.3
2004-02-04 13:10:14 51°16.72 2°53.825 29.7 3.8 39 14.2
2004-02-04 13:11:14 51°16.766 2°53.893 54.3 3.7 49 14
2004-02-04 13:12:14 51°16.795 2°53.976 85.6 3.4 69 13.9
2004-02-04 13:13:14 51°16.805 2°54.057 114.3 2.9 87 13.8
2004-02-04 13:14:14 51°16.799 2°54.131 140 2.8 108 13.8
2004-02-04 13:15:14 51°16.79 2°54.191 151.1 1.9 103 14
2004-02-04 13:16:14 51°16.789 2°54.242 154.3 1.9 86 14.3
2004-02-04 13:17:14 51°16.729 2°54.308 172.8 8.8 162 14.2
2004-02-04 13:18:14 51°16.537 2°54.378 175.8 12.6 170 13.8
2004-02-04 13:19:14 51°16.329 2°54.369 191.7 12.5 187 13.7
2004-02-04 13:20:14 51°16.122 2°54.326 192.2 12.5 187 13.5
2004-02-04 13:21:14 51°15.914 2°54.282 192.7 12.6 188 13
2004-02-04 13:22:14 51°15.705 2°54.238 191.6 12.8 187 12.4
2004-02-04 13:23:14 51°15.496 2°54.195 192.4 12.7 186 11.7
2004-02-04 13:24:14 51°15.288 2°54.152 192.9 12.6 187 11.3
2004-02-04 13:25:14 51°15.079 2°54.11 192.3 12.6 188 11
2004-02-04 13:26:14 51°14.871 2°54.068 192.6 12.6 187 11.4
2004-02-04 13:27:14 51°14.675 2°54.033 192.1 9.1 184 13.2
2004-02-04 13:28:14 51°14.584 2°54.084 160.6 4.1 137 13.5
2004-02-04 13:29:14 51°14.567 2°54.13 173.5 1.4 98 13.1
2004-02-04 13:30:14 51°14.567 2°54.167 172.1 1.4 84 13.5
2004-02-04 13:31:14 51°14.573 2°54.202 168.3 1.4 72 13.4
2004-02-04 13:32:14 51°14.58 2°54.237 166.3 1.5 71 13.3
2004-02-04 13:33:14 51°14.589 2°54.27 159.6 1.3 63 13.4
2004-02-04 13:34:14 51°14.6 2°54.304 150.2 1.4 66 12.8
2004-02-04 13:35:14 51°14.609 2°54.339 143.2 1.4 65 13
2004-02-04 13:36:14 51°14.619 2°54.373 141.5 1.6 66 12.4
2004-02-04 13:37:14 51°14.628 2°54.409 140.4 1.5 67 12.1
2004-02-04 13:38:14 51°14.638 2°54.444 140 1.5 65 12.2
2004-02-04 13:39:14 51°14.648 2°54.478 139.8 1.4 65 12
2004-02-04 13:40:14 51°14.622 2°54.551 146.2 6.4 135 12
2004-02-04 13:41:14 51°14.522 2°54.728 136.4 10 130 12.1
2004-02-04 13:42:14 51°14.413 2°54.963 132.8 11.4 128 12.5